createdAt,value
2022-09-26T00:01:43.002Z,13.44
2022-09-26T00:04:27.902Z,13.42
2022-09-26T00:06:58.676Z,13.40
2022-09-26T00:09:28.389Z,13.40
2022-09-26T00:11:57.072Z,13.38
2022-09-26T00:14:28.218Z,13.39
2022-09-26T00:16:57.142Z,13.43
2022-09-26T00:19:25.701Z,13.44
2022-09-26T00:21:53.955Z,13.42
2022-09-26T00:24:22.036Z,13.40
2022-09-26T00:26:50.107Z,13.41
2022-09-26T00:29:18.281Z,13.40
2022-09-26T00:31:49.322Z,13.42
2022-09-26T00:34:20.056Z,13.45
2022-09-26T00:36:49.973Z,13.45
2022-09-26T00:39:18.660Z,13.45
2022-09-26T00:41:47.175Z,13.45
2022-09-26T00:44:37.227Z,13.44
2022-09-26T00:47:14.614Z,13.45
2022-09-26T00:49:45.758Z,13.47
2022-09-26T00:52:19.978Z,13.44
2022-09-26T00:54:52.553Z,13.42
2022-09-26T00:57:33.933Z,13.42
2022-09-26T01:00:07.937Z,13.41
2022-09-26T01:02:36.536Z,13.41
2022-09-26T01:05:07.202Z,13.45
2022-09-26T01:07:35.707Z,13.43
2022-09-26T01:10:07.600Z,13.38
2022-09-26T01:12:38.209Z,13.34
2022-09-26T01:15:09.214Z,13.31
2022-09-26T01:17:40.384Z,13.28
2022-09-26T01:20:17.500Z,13.27
2022-09-26T01:23:29.297Z,13.25
2022-09-26T01:26:21.636Z,13.17
2022-09-26T01:29:08.422Z,13.14
2022-09-26T01:32:05.602Z,13.12
2022-09-26T01:34:47.393Z,13.12
2022-09-26T01:37:49.563Z,13.15
2022-09-26T01:40:44.211Z,13.08
2022-09-26T01:43:46.022Z,13.04
2022-09-26T01:46:34.397Z,12.98
2022-09-26T01:49:47.188Z,12.94
2022-09-26T01:52:21.204Z,12.97
2022-09-26T01:54:52.957Z,12.96
2022-09-26T01:57:38.427Z,12.94
2022-09-26T02:00:08.827Z,12.91
2022-09-26T02:02:46.817Z,12.89
2022-09-26T02:05:23.748Z,12.88
2022-09-26T02:08:24.781Z,12.90
2022-09-26T02:11:02.385Z,12.91
2022-09-26T02:13:37.806Z,12.87
2022-09-26T02:16:11.095Z,12.87
2022-09-26T02:18:49.227Z,12.86
2022-09-26T02:21:22.316Z,12.83
2022-09-26T02:23:52.130Z,12.80
2022-09-26T02:26:23.868Z,12.78
2022-09-26T02:28:52.880Z,12.75
2022-09-26T02:31:26.513Z,12.73
2022-09-26T02:33:54.655Z,12.75
2022-09-26T02:36:24.775Z,12.77
2022-09-26T02:38:54.073Z,12.77
2022-09-26T02:42:21.434Z,12.78
2022-09-26T02:45:26.040Z,12.75
2022-09-26T02:48:13.391Z,12.73
2022-09-26T02:50:48.217Z,12.73
2022-09-26T02:53:39.224Z,12.72
2022-09-26T02:56:31.770Z,12.72
2022-09-26T02:59:12.845Z,12.77
2022-09-26T03:01:56.790Z,12.76
2022-09-26T03:04:57.683Z,12.75
2022-09-26T03:07:33.696Z,12.72
2022-09-26T03:10:05.550Z,12.70
2022-09-26T03:12:35.056Z,12.69
2022-09-26T03:15:06.567Z,12.70
2022-09-26T03:17:37.134Z,12.68
2022-09-26T03:20:18.415Z,12.63
2022-09-26T03:22:46.854Z,12.59
2022-09-26T03:25:19.267Z,12.58
2022-09-26T03:27:55.136Z,12.61
2022-09-26T03:30:24.730Z,12.65
2022-09-26T03:33:12.769Z,12.65
2022-09-26T03:35:41.146Z,12.63
2022-09-26T03:38:14.133Z,12.61
2022-09-26T03:40:46.996Z,12.58
2022-09-26T03:43:33.933Z,12.55
2022-09-26T03:46:07.440Z,12.55
2022-09-26T03:48:36.117Z,12.57
2022-09-26T03:51:07.487Z,12.53
2022-09-26T03:53:42.192Z,12.51
2022-09-26T03:56:16.098Z,12.50
2022-09-26T03:58:45.459Z,12.47
2022-09-26T04:01:17.011Z,12.42
2022-09-26T04:03:50.273Z,12.42
2022-09-26T04:06:21.037Z,12.41
2022-09-26T04:08:51.817Z,12.38
2022-09-26T04:11:23.247Z,12.34
2022-09-26T04:13:53.935Z,12.33
2022-09-26T04:16:24.806Z,12.33
2022-09-26T04:18:58.232Z,12.28
2022-09-26T04:21:27.544Z,12.29
2022-09-26T04:23:57.447Z,12.22
2022-09-26T04:26:25.518Z,12.13
2022-09-26T04:28:57.379Z,12.08
2022-09-26T04:31:38.025Z,12.08
2022-09-26T04:34:12.166Z,12.05
2022-09-26T04:36:40.741Z,12.09
2022-09-26T04:39:08.953Z,12.15
2022-09-26T04:41:37.806Z,12.14
2022-09-26T04:44:05.877Z,12.13
2022-09-26T04:46:34.094Z,12.15
2022-09-26T04:49:03.331Z,12.18
2022-09-26T04:51:32.757Z,12.22
2022-09-26T04:54:01.029Z,12.29
2022-09-26T04:56:33.606Z,12.31
2022-09-26T04:59:02.499Z,12.31
2022-09-26T05:01:50.973Z,12.29
2022-09-26T05:04:27.647Z,12.31
2022-09-26T05:06:57.980Z,12.34
2022-09-26T05:09:32.961Z,12.42
2022-09-26T05:12:08.027Z,12.42
2022-09-26T05:14:37.827Z,12.43
2022-09-26T05:17:06.204Z,12.44
2022-09-26T05:19:34.890Z,12.44
2022-09-26T05:22:18.117Z,12.45
2022-09-26T05:25:05.950Z,12.49
2022-09-26T05:27:34.841Z,12.52
2022-09-26T05:30:03.016Z,12.51
2022-09-26T05:32:31.188Z,12.51
2022-09-26T05:34:59.669Z,12.51
2022-09-26T05:37:30.096Z,12.51
2022-09-26T05:40:17.079Z,12.49
2022-09-26T05:42:48.869Z,12.52
2022-09-26T05:45:17.144Z,12.55
2022-09-26T05:47:48.906Z,12.55
2022-09-26T05:50:17.793Z,12.56
2022-09-26T05:52:46.373Z,12.56
2022-09-26T05:55:22.844Z,12.59
2022-09-26T05:58:10.271Z,12.62
2022-09-26T06:01:18.436Z,12.59
2022-09-26T06:03:47.577Z,12.59
2022-09-26T06:06:21.586Z,12.60
2022-09-26T06:08:55.189Z,12.55
2022-09-26T06:11:52.551Z,12.56
2022-09-26T06:14:24.599Z,12.61
2022-09-26T06:16:53.093Z,12.63
2022-09-26T06:19:23.083Z,12.66
2022-09-26T06:21:51.795Z,12.68
2022-09-26T06:24:21.504Z,12.70
2022-09-26T06:26:53.057Z,12.72
2022-09-26T06:29:21.231Z,12.80
2022-09-26T06:31:50.805Z,12.82
2022-09-26T06:34:51.985Z,12.85
2022-09-26T06:37:46.567Z,12.89
2022-09-26T06:40:15.033Z,12.93
2022-09-26T06:42:43.751Z,12.96
2022-09-26T06:45:25.742Z,13.05
2022-09-26T06:48:21.097Z,13.08
2022-09-26T06:51:00.711Z,13.09
2022-09-26T06:53:31.736Z,13.12
2022-09-26T06:56:01.711Z,13.14
2022-09-26T06:58:31.256Z,13.14
2022-09-26T07:01:06.885Z,13.21
2022-09-26T07:03:54.485Z,13.25
2022-09-26T07:06:41.553Z,13.27
2022-09-26T07:09:12.208Z,13.28
2022-09-26T07:12:19.986Z,13.30
2022-09-26T07:14:52.804Z,13.34
2022-09-26T07:17:29.645Z,13.42
2022-09-26T07:20:20.246Z,13.42
2022-09-26T07:23:17.093Z,13.43
2022-09-26T07:25:47.231Z,13.45
2022-09-26T07:28:15.592Z,13.46
2022-09-26T07:30:51.546Z,13.49
2022-09-26T07:33:42.144Z,13.57
2022-09-26T07:36:12.367Z,13.58
2022-09-26T07:38:41.256Z,13.58
2022-09-26T07:41:11.186Z,13.61
2022-09-26T07:46:48.103Z,13.63
2022-09-26T07:49:35.391Z,13.69
2022-09-26T07:52:22.710Z,13.69
2022-09-26T07:55:14.031Z,13.70
2022-09-26T07:58:00.432Z,13.73
2022-09-26T08:00:38.437Z,13.73
2022-09-26T08:03:43.783Z,13.76
2022-09-26T08:06:22.707Z,13.77
2022-09-26T08:08:55.181Z,13.76
2022-09-26T08:11:42.196Z,13.75
2022-09-26T08:14:42.525Z,13.72
2022-09-26T08:17:17.559Z,13.70
2022-09-26T08:19:45.734Z,13.72
2022-09-26T08:22:14.716Z,13.76
2022-09-26T08:24:45.459Z,13.76
2022-09-26T08:27:33.640Z,13.75
2022-09-26T08:30:03.010Z,13.73
2022-09-26T08:32:32.583Z,13.74
2022-09-26T08:35:01.195Z,13.74
2022-09-26T08:37:47.390Z,13.76
2022-09-26T08:40:59.886Z,13.77
2022-09-26T08:44:05.886Z,13.77
2022-09-26T08:46:57.284Z,13.77
2022-09-26T08:50:12.663Z,13.77
2022-09-26T08:52:57.219Z,13.77
2022-09-26T08:55:40.139Z,13.80
2022-09-26T08:58:16.130Z,13.80
2022-09-26T09:00:46.317Z,13.75
2022-09-26T09:03:26.269Z,13.73
2022-09-26T09:06:11.951Z,13.72
2022-09-26T09:08:46.170Z,13.77
2022-09-26T09:11:44.037Z,13.80
2022-09-26T09:14:27.469Z,13.81
2022-09-26T09:17:44.386Z,13.79
2022-09-26T09:20:46.966Z,13.74
2022-09-26T09:24:04.705Z,13.78
2022-09-26T09:30:17.570Z,13.85
2022-09-26T09:33:12.646Z,13.88
2022-09-26T09:36:07.956Z,13.97
2022-09-26T09:39:06.440Z,14.03
2022-09-26T09:42:02.470Z,14.05
2022-09-26T09:44:43.061Z,14.08
2022-09-26T09:47:19.089Z,14.13
2022-09-26T09:49:49.622Z,14.21
2022-09-26T09:52:21.274Z,14.26
2022-09-26T09:54:53.544Z,14.26
2022-09-26T09:57:34.723Z,14.25
2022-09-26T10:00:15.294Z,14.27
2022-09-26T10:02:59.888Z,14.29
2022-09-26T10:05:39.485Z,14.33
2022-09-26T10:08:14.095Z,14.36
2022-09-26T10:11:28.674Z,14.35
2022-09-26T10:14:03.552Z,14.33
2022-09-26T10:17:09.586Z,14.29
2022-09-26T10:19:45.124Z,14.27
2022-09-26T10:22:45.254Z,14.31
2022-09-26T10:25:26.485Z,14.33
2022-09-26T10:28:01.448Z,14.34
2022-09-26T10:30:33.411Z,14.33
2022-09-26T10:33:06.295Z,14.33
2022-09-26T10:35:41.642Z,14.34
2022-09-26T10:38:23.223Z,14.37
2022-09-26T10:41:25.189Z,14.33
2022-09-26T10:43:56.538Z,14.30
2022-09-26T10:46:51.583Z,14.30
2022-09-26T10:49:36.509Z,14.29
2022-09-26T10:52:30.385Z,14.32
2022-09-26T10:55:13.307Z,14.34
2022-09-26T10:57:49.054Z,14.33
2022-09-26T11:00:42.522Z,14.33
2022-09-26T11:03:34.797Z,14.33
2022-09-26T11:06:40.821Z,14.34
2022-09-26T11:09:28.963Z,14.38
2022-09-26T11:11:57.034Z,14.37
2022-09-26T11:14:32.989Z,14.38
2022-09-26T11:17:13.044Z,14.39
2022-09-26T11:19:55.031Z,14.41
2022-09-26T11:22:54.561Z,14.46
2022-09-26T11:25:32.144Z,14.45
2022-09-26T11:28:09.227Z,14.45
2022-09-26T11:30:56.924Z,14.44
2022-09-26T11:33:26.872Z,14.42
2022-09-26T11:36:55.053Z,14.40
2022-09-26T11:39:35.313Z,14.43
2022-09-26T11:42:09.629Z,14.41
2022-09-26T11:44:43.435Z,14.38
2022-09-26T11:47:38.641Z,14.34
2022-09-26T11:50:12.452Z,14.33
2022-09-26T11:53:20.762Z,14.33
2022-09-26T11:56:16.176Z,14.31
2022-09-26T11:59:02.370Z,14.32
2022-09-26T12:01:39.048Z,14.30
2022-09-26T12:04:19.712Z,14.31
2022-09-26T12:06:54.336Z,14.36
2022-09-26T12:09:45.554Z,14.36
2022-09-26T12:12:24.578Z,14.37
2022-09-26T12:15:25.829Z,14.38
2022-09-26T12:18:21.443Z,14.37
2022-09-26T12:20:58.731Z,14.41
2022-09-26T12:23:34.483Z,14.45
2022-09-26T12:26:08.905Z,14.43
2022-09-26T12:29:24.079Z,14.43
2022-09-26T12:32:24.306Z,14.42
2022-09-26T12:35:05.379Z,14.42
2022-09-26T12:37:57.617Z,14.45
2022-09-26T12:40:46.115Z,14.45
2022-09-26T12:43:59.194Z,14.48
2022-09-26T12:46:30.100Z,14.49
2022-09-26T12:49:36.501Z,14.49
2022-09-26T12:52:10.911Z,14.50
2022-09-26T12:54:59.780Z,14.52
2022-09-26T12:58:02.155Z,14.50
2022-09-26T13:00:44.154Z,14.53
2022-09-26T13:03:17.954Z,14.53
2022-09-26T13:06:08.805Z,14.54
2022-09-26T13:09:03.663Z,14.57
2022-09-26T13:12:26.738Z,14.57
2022-09-26T13:15:19.578Z,14.59
2022-09-26T13:18:00.858Z,14.62
2022-09-26T13:20:41.530Z,14.62
2022-09-26T13:23:20.450Z,14.71
2022-09-26T13:26:03.473Z,14.74
2022-09-26T13:28:55.706Z,14.78
2022-09-26T13:31:38.397Z,14.80
2022-09-26T13:34:29.842Z,14.81
2022-09-26T13:36:59.606Z,14.85
2022-09-26T13:39:48.410Z,14.92
2022-09-26T13:42:28.669Z,14.95
2022-09-26T13:45:02.578Z,14.98
2022-09-26T13:47:46.726Z,15.01
2022-09-26T13:50:42.050Z,15.04
2022-09-26T13:53:43.070Z,15.08
2022-09-26T13:56:36.394Z,15.10
2022-09-26T13:59:18.339Z,15.07
2022-09-26T14:02:05.880Z,15.07
2022-09-26T14:04:36.293Z,15.07
2022-09-26T14:07:28.839Z,15.06
2022-09-26T14:10:08.964Z,15.06
2022-09-26T14:13:08.198Z,15.08
2022-09-26T14:15:48.694Z,15.06
2022-09-26T14:18:34.659Z,15.06
2022-09-26T14:21:41.121Z,15.05
2022-09-26T14:24:21.175Z,15.03
2022-09-26T14:26:58.747Z,15.03
2022-09-26T14:29:49.970Z,15.06
2022-09-26T14:32:23.670Z,15.05
2022-09-26T14:34:54.929Z,15.04
2022-09-26T14:37:25.969Z,15.00
2022-09-26T14:40:00.335Z,14.95
2022-09-26T14:42:43.924Z,14.90
2022-09-26T14:45:16.807Z,14.88
2022-09-26T14:47:48.772Z,14.90
2022-09-26T14:50:25.039Z,14.89
2022-09-26T14:52:59.863Z,14.83
2022-09-26T14:55:30.809Z,14.81
2022-09-26T14:58:34.406Z,14.81
2022-09-26T15:01:19.344Z,14.80
2022-09-26T15:03:56.463Z,14.80
2022-09-26T15:06:26.679Z,14.82
2022-09-26T15:08:55.876Z,14.77
2022-09-26T15:11:33.058Z,14.73
2022-09-26T15:14:13.097Z,14.71
2022-09-26T15:16:47.943Z,14.68
2022-09-26T15:19:33.729Z,14.69
2022-09-26T15:22:12.832Z,14.70
2022-09-26T15:24:41.056Z,14.68
2022-09-26T15:27:29.588Z,14.68
2022-09-26T15:30:18.644Z,14.68
2022-09-26T15:32:50.409Z,14.66
2022-09-26T15:35:19.501Z,14.65
2022-09-26T15:37:48.087Z,14.65
2022-09-26T15:40:19.120Z,14.59
2022-09-26T15:43:01.841Z,14.58
2022-09-26T15:45:33.746Z,14.58
2022-09-26T15:48:24.504Z,14.58
2022-09-26T15:51:02.515Z,14.59
2022-09-26T15:53:36.622Z,14.64
2022-09-26T15:56:09.791Z,14.64
2022-09-26T15:58:50.377Z,14.63
2022-09-26T16:01:22.099Z,14.63
2022-09-26T16:04:00.038Z,14.62
2022-09-26T16:06:35.993Z,14.62
2022-09-26T16:09:34.682Z,14.67
2022-09-26T16:12:11.614Z,14.65
2022-09-26T16:14:51.000Z,14.63
2022-09-26T16:17:32.791Z,14.62
2022-09-26T16:20:09.668Z,14.60
2022-09-26T16:22:39.449Z,14.60
2022-09-26T16:25:39.398Z,14.64
2022-09-26T16:28:10.544Z,14.61
2022-09-26T16:30:45.414Z,14.58
2022-09-26T16:33:30.891Z,14.56
2022-09-26T16:36:18.588Z,14.54
2022-09-26T16:38:53.926Z,14.52
2022-09-26T16:41:56.275Z,14.53
2022-09-26T16:44:34.508Z,14.47
2022-09-26T16:47:25.519Z,14.42
2022-09-26T16:49:53.590Z,14.37
2022-09-26T16:52:32.087Z,14.32
2022-09-26T16:55:02.944Z,14.28
2022-09-26T16:57:35.007Z,14.27
2022-09-26T17:00:39.125Z,14.22
2022-09-26T17:03:29.765Z,14.15
2022-09-26T17:05:59.791Z,14.09
2022-09-26T17:08:28.479Z,14.03
2022-09-26T17:11:02.014Z,14.00
2022-09-26T17:13:35.432Z,13.99
2022-09-26T17:16:03.950Z,13.94
2022-09-26T17:18:34.023Z,13.87
2022-09-26T17:21:02.725Z,13.81
2022-09-26T17:23:40.338Z,13.77
2022-09-26T17:26:18.615Z,13.72
2022-09-26T17:28:46.789Z,13.71
2022-09-26T17:31:20.234Z,13.69
2022-09-26T17:33:52.644Z,13.63
2022-09-26T17:36:29.516Z,13.61
2022-09-26T17:39:02.637Z,13.60
2022-09-26T17:41:32.848Z,13.58
2022-09-26T17:44:01.274Z,13.61
2022-09-26T17:46:29.773Z,13.63
2022-09-26T17:48:59.505Z,13.60
2022-09-26T17:51:27.591Z,13.59
2022-09-26T17:53:57.572Z,13.57
2022-09-26T17:56:26.715Z,13.55
2022-09-26T17:58:56.004Z,13.54
2022-09-26T18:01:30.479Z,13.56
2022-09-26T18:04:02.572Z,13.51
2022-09-26T18:06:33.110Z,13.48
2022-09-26T18:09:07.735Z,13.46
2022-09-26T18:11:37.556Z,13.43
2022-09-26T18:14:07.051Z,13.37
2022-09-26T18:16:35.447Z,13.35
2022-09-26T18:19:07.584Z,13.38
2022-09-26T18:21:36.629Z,13.35
2022-09-26T18:24:07.157Z,13.30
2022-09-26T18:26:42.477Z,13.26
2022-09-26T18:29:15.451Z,13.23
2022-09-26T18:31:46.074Z,13.21
2022-09-26T18:34:18.997Z,13.20
2022-09-26T18:36:50.322Z,13.21
2022-09-26T18:39:18.992Z,13.17
2022-09-26T18:41:51.282Z,13.12
2022-09-26T18:44:20.580Z,13.10
2022-09-26T18:46:49.508Z,13.05
2022-09-26T18:49:18.153Z,13.03
2022-09-26T18:51:47.039Z,13.05
2022-09-26T18:54:17.393Z,13.04
2022-09-26T18:57:04.383Z,13.02
2022-09-26T18:59:32.562Z,13.00
2022-09-26T19:02:02.890Z,12.98
2022-09-26T19:04:31.952Z,12.96
2022-09-26T19:07:04.791Z,12.95
2022-09-26T19:09:35.511Z,12.98
2022-09-26T19:12:04.282Z,12.94
2022-09-26T19:14:32.966Z,12.90
2022-09-26T19:17:05.030Z,12.89
2022-09-26T19:19:33.411Z,12.86
2022-09-26T19:22:08.345Z,12.84
2022-09-26T19:24:38.360Z,12.84
2022-09-26T19:27:25.251Z,12.84
2022-09-26T19:30:15.359Z,12.80
2022-09-26T19:32:46.810Z,12.77
2022-09-26T19:35:25.939Z,12.76
2022-09-26T19:37:54.323Z,12.73
2022-09-26T19:40:23.655Z,12.71
2022-09-26T19:42:52.172Z,12.75
2022-09-26T19:45:21.810Z,12.73
2022-09-26T19:47:54.715Z,12.70
2022-09-26T19:50:25.944Z,12.68
2022-09-26T19:52:56.683Z,12.66
2022-09-26T19:55:30.069Z,12.62
2022-09-26T19:58:03.158Z,12.61
2022-09-26T20:00:31.253Z,12.63
2022-09-26T20:02:59.474Z,12.61
2022-09-26T20:05:28.190Z,12.59
2022-09-26T20:07:56.266Z,12.57
2022-09-26T20:10:27.203Z,12.55
2022-09-26T20:12:55.275Z,12.54
2022-09-26T20:15:24.368Z,12.59
2022-09-26T20:17:55.210Z,12.58
2022-09-26T20:20:25.427Z,12.58
2022-09-26T20:22:55.505Z,12.57
2022-09-26T20:25:31.706Z,12.56
2022-09-26T20:28:00.363Z,12.53
2022-09-26T20:30:47.309Z,12.50
2022-09-26T20:33:15.588Z,12.52
2022-09-26T20:35:46.318Z,12.50
2022-09-26T20:38:37.018Z,12.47
2022-09-26T20:41:19.019Z,12.46
2022-09-26T20:43:50.260Z,12.44
2022-09-26T20:46:22.202Z,12.43
2022-09-26T20:48:51.420Z,12.46
2022-09-26T20:51:31.261Z,12.47
2022-09-26T20:54:00.875Z,12.46
2022-09-26T20:56:29.537Z,12.46
2022-09-26T20:58:57.595Z,12.45
2022-09-26T21:01:28.388Z,12.44
2022-09-26T21:03:56.643Z,12.43
2022-09-26T21:06:33.318Z,12.43
2022-09-26T21:09:02.925Z,12.33
2022-09-26T21:11:30.994Z,12.28
2022-09-26T21:13:59.065Z,12.27
2022-09-26T21:16:27.322Z,12.27
2022-09-26T21:18:55.620Z,12.28
2022-09-26T21:21:30.551Z,12.32
2022-09-26T21:23:59.654Z,12.33
2022-09-26T21:26:30.067Z,12.34
2022-09-26T21:28:58.350Z,12.35
2022-09-26T21:31:30.208Z,12.37
2022-09-26T21:34:00.339Z,12.35
2022-09-26T21:36:39.687Z,12.41
2022-09-26T21:39:07.904Z,12.42
2022-09-26T21:41:36.788Z,12.43
2022-09-26T21:44:12.973Z,12.45
2022-09-26T21:46:41.086Z,12.44
2022-09-26T21:49:09.309Z,12.45
2022-09-26T21:51:37.616Z,12.48
2022-09-26T21:54:26.780Z,12.48
2022-09-26T21:57:00.894Z,12.48
2022-09-26T21:59:30.296Z,12.46
2022-09-26T22:01:58.497Z,12.47
2022-09-26T22:04:26.745Z,12.49
2022-09-26T22:06:54.822Z,12.55
2022-09-26T22:09:23.092Z,12.55
2022-09-26T22:11:51.165Z,12.56
2022-09-26T22:14:19.234Z,12.56
2022-09-26T22:16:47.367Z,12.56
2022-09-26T22:19:15.603Z,12.56
2022-09-26T22:21:43.859Z,12.57
2022-09-26T22:24:12.838Z,12.61
2022-09-26T22:26:40.925Z,12.60
2022-09-26T22:29:09.086Z,12.59
2022-09-26T22:31:37.169Z,12.59
2022-09-26T22:34:05.240Z,12.59
2022-09-26T22:36:33.618Z,12.60
2022-09-26T22:39:02.015Z,12.64
2022-09-26T22:41:30.067Z,12.62
2022-09-26T22:43:58.344Z,12.60
2022-09-26T22:46:26.474Z,12.59
2022-09-26T22:48:58.993Z,12.57
2022-09-26T22:51:30.033Z,12.54
2022-09-26T22:53:58.104Z,12.53
2022-09-26T22:56:26.175Z,12.56
2022-09-26T22:58:54.861Z,12.51
2022-09-26T23:01:25.792Z,12.49
2022-09-26T23:03:54.384Z,12.47
2022-09-26T23:06:23.687Z,12.44
2022-09-26T23:08:52.147Z,12.40
2022-09-26T23:11:20.650Z,12.39
2022-09-26T23:13:52.295Z,12.37
2022-09-26T23:16:23.416Z,12.33
2022-09-26T23:18:52.503Z,12.29
2022-09-26T23:21:26.244Z,12.24
2022-09-26T23:23:56.977Z,12.18
2022-09-26T23:26:28.222Z,12.13
2022-09-26T23:28:57.625Z,12.13
2022-09-26T23:31:27.821Z,12.17
2022-09-26T23:33:57.556Z,12.14
2022-09-26T23:36:25.732Z,12.13
2022-09-26T23:38:54.090Z,12.12
2022-09-26T23:41:22.186Z,12.10
2022-09-26T23:43:50.252Z,12.08
2022-09-26T23:46:18.532Z,12.10
2022-09-26T23:48:46.704Z,12.11
2022-09-26T23:51:14.773Z,12.09
2022-09-26T23:53:42.844Z,12.07
2022-09-26T23:56:14.405Z,12.06
2022-09-26T23:58:42.854Z,12.04
